Time;durP1;ratioP1;P1;durP2;ratioP2;P2;SDS_P1;SDS_P2;PMS_P1;PMS_P2;Temp;Humidity;BMP_temperature;BMP_pressure;BME280_temperature;BME280_humidity;BME280_pressure;Samples;Min_cycle;Max_cycle;Signal;HPM_P1;HPM_P2
2022/11/12 00:00:28;;;;;;;;;;;13.40;99.90;;;;;;5093780;28;20353;-24
2022/11/12 00:02:54;;;;;;;;;;;13.40;99.90;;;;;;5093880;28;19908;-24
2022/11/12 00:05:19;;;;;;;;;;;13.40;99.90;;;;;;5093754;28;19971;-24
2022/11/12 00:07:45;;;;;;;;;;;13.40;99.90;;;;;;5093662;28;19952;-23
2022/11/12 00:10:10;;;;;;;;;;;13.40;99.90;;;;;;5093417;28;20003;-24
2022/11/12 00:12:36;;;;;;;;;;;13.40;99.90;;;;;;5093521;28;20007;-23
2022/11/12 00:15:01;;;;;;;;;;;13.40;99.90;;;;;;5093896;28;20012;-24
2022/11/12 00:17:27;;;;;;;;;;;13.40;99.90;;;;;;5093414;28;20488;-24
2022/11/12 00:19:53;;;;;;;;;;;13.30;99.90;;;;;;5092868;28;19913;-24
2022/11/12 00:22:19;;;;;;;;;;;13.30;99.90;;;;;;5093443;28;19948;-24
2022/11/12 00:24:44;;;;;;;;;;;13.30;99.90;;;;;;5093404;28;19912;-23
2022/11/12 00:27:10;;;;;;;;;;;13.40;99.90;;;;;;5093362;28;19908;-24
2022/11/12 00:29:35;;;;;;;;;;;13.30;99.90;;;;;;5093045;28;20394;-24
2022/11/12 00:32:01;;;;;;;;;;;13.30;99.90;;;;;;5093998;28;20266;-24
2022/11/12 00:34:27;;;;;;;;;;;13.30;99.90;;;;;;5093519;28;19920;-24
2022/11/12 00:36:52;;;;;;;;;;;13.40;99.90;;;;;;5093559;28;19947;-24
2022/11/12 00:39:18;;;;;;;;;;;13.30;99.90;;;;;;5092736;28;19922;-24
2022/11/12 00:41:43;;;;;;;;;;;13.30;99.90;;;;;;5093058;28;19916;-24
2022/11/12 00:44:09;;;;;;;;;;;13.30;99.90;;;;;;5091678;28;20362;-24
2022/11/12 00:46:34;;;;;;;;;;;13.30;99.90;;;;;;5092966;28;20003;-24
2022/11/12 00:49:00;;;;;;;;;;;13.30;99.90;;;;;;5092437;28;19915;-24
2022/11/12 00:51:25;;;;;;;;;;;13.30;99.90;;;;;;5092860;28;19908;-24
2022/11/12 00:53:51;;;;;;;;;;;13.30;99.90;;;;;;5092599;28;19966;-24
2022/11/12 00:56:16;;;;;;;;;;;13.30;99.90;;;;;;5092891;28;19912;-24
2022/11/12 00:58:42;;;;;;;;;;;13.30;99.90;;;;;;5092331;28;20373;-24
2022/11/12 01:01:09;;;;;;;;;;;13.20;99.90;;;;;;5092984;28;19935;-24
2022/11/12 01:03:35;;;;;;;;;;;13.20;99.90;;;;;;5091322;28;19931;-24
2022/11/12 01:06:05;;;;;;;;;;;13.30;99.90;;;;;;5093119;28;19908;-24
2022/11/12 01:08:30;;;;;;;;;;;13.30;99.90;;;;;;5092230;28;19991;-24
2022/11/12 01:11:03;;;;;;;;;;;13.20;99.90;;;;;;5092797;28;20006;-24
2022/11/12 01:13:28;;;;;;;;;;;13.20;99.90;;;;;;5092497;28;19970;-24
2022/11/12 01:15:54;;;;;;;;;;;13.20;99.90;;;;;;5092754;28;19963;-23
2022/11/12 01:18:19;;;;;;;;;;;13.20;99.90;;;;;;5091556;28;20285;-24
2022/11/12 01:20:45;;;;;;;;;;;13.20;99.90;;;;;;5092399;28;19922;-24
2022/11/12 01:23:10;;;;;;;;;;;13.20;99.90;;;;;;5092766;28;19908;-24
2022/11/12 01:25:36;;;;;;;;;;;13.20;99.90;;;;;;5092567;28;20590;-24
2022/11/12 01:28:02;;;;;;;;;;;13.20;99.90;;;;;;5092344;28;19908;-23
2022/11/12 01:30:28;;;;;;;;;;;13.20;99.90;;;;;;5092387;28;20314;-24
2022/11/12 01:32:53;;;;;;;;;;;13.20;99.90;;;;;;5092829;28;19920;-24
2022/11/12 01:35:19;;;;;;;;;;;13.20;99.90;;;;;;5092432;28;19939;-24
2022/11/12 01:37:44;;;;;;;;;;;13.20;99.90;;;;;;5091043;28;19916;-23
2022/11/12 01:40:10;;;;;;;;;;;13.20;99.90;;;;;;5091754;28;19912;-24
2022/11/12 01:42:37;;;;;;;;;;;13.20;99.90;;;;;;5092263;28;20034;-24
2022/11/12 01:45:14;;;;;;;;;;;13.20;99.90;;;;;;5092147;28;20479;-24
2022/11/12 01:47:41;;;;;;;;;;;13.10;99.90;;;;;;5092233;28;20292;-24
2022/11/12 01:50:15;;;;;;;;;;;13.10;99.90;;;;;;5091573;28;19912;-23
2022/11/12 01:52:43;;;;;;;;;;;13.10;99.90;;;;;;5091884;28;20379;-23
2022/11/12 01:55:12;;;;;;;;;;;13.10;99.90;;;;;;5092232;28;19955;-24
2022/11/12 01:57:40;;;;;;;;;;;13.10;99.90;;;;;;5091054;28;19908;-24
2022/11/12 02:00:07;;;;;;;;;;;13.10;99.90;;;;;;5092416;28;19912;-24
2022/11/12 02:02:34;;;;;;;;;;;13.20;99.90;;;;;;5092152;28;20335;-23
2022/11/12 02:05:01;;;;;;;;;;;13.10;99.90;;;;;;5092041;28;19908;-23
2022/11/12 02:07:27;;;;;;;;;;;13.10;99.90;;;;;;5092121;28;19914;-24
2022/11/12 02:09:53;;;;;;;;;;;13.10;99.90;;;;;;5091558;28;19994;-24
2022/11/12 02:15:03;;;;;;;;;;;13.10;99.90;;;;;;5091665;28;20388;-24
2022/11/12 02:17:28;;;;;;;;;;;13.10;99.90;;;;;;5092043;28;19908;-24
2022/11/12 02:19:57;;;;;;;;;;;13.10;99.90;;;;;;5091979;28;19908;-24
2022/11/12 02:22:22;;;;;;;;;;;13.10;99.90;;;;;;5092276;28;19955;-24
2022/11/12 02:24:48;;;;;;;;;;;13.10;99.90;;;;;;5091635;28;19927;-24
2022/11/12 02:27:13;;;;;;;;;;;13.10;99.90;;;;;;5091576;28;19909;-23
2022/11/12 02:29:45;;;;;;;;;;;13.10;99.90;;;;;;5091143;28;19913;-24
2022/11/12 02:32:11;;;;;;;;;;;13.10;99.90;;;;;;5092046;28;19909;-23
2022/11/12 02:34:38;;;;;;;;;;;13.10;99.90;;;;;;5091706;28;19958;-24
2022/11/12 02:37:04;;;;;;;;;;;13.10;99.90;;;;;;5092195;28;19912;-24
2022/11/12 02:39:29;;;;;;;;;;;13.10;99.90;;;;;;5090899;28;20285;-24
2022/11/12 02:41:55;;;;;;;;;;;13.10;99.90;;;;;;5091084;28;19927;-24
2022/11/12 02:44:20;;;;;;;;;;;13.10;99.90;;;;;;5091356;28;19908;-24
2022/11/12 02:46:46;;;;;;;;;;;13.10;99.90;;;;;;5091221;28;19915;-24
2022/11/12 02:49:11;;;;;;;;;;;13.10;99.90;;;;;;5090791;28;19909;-24
2022/11/12 02:51:39;;;;;;;;;;;13.00;99.90;;;;;;5090303;28;20414;-24
2022/11/12 02:54:04;;;;;;;;;;;13.00;99.90;;;;;;5090924;28;19969;-23
2022/11/12 02:56:30;;;;;;;;;;;13.00;99.90;;;;;;5091386;28;20021;-24
2022/11/12 02:58:55;;;;;;;;;;;13.00;99.90;;;;;;5090542;28;20011;-23
2022/11/12 03:01:21;;;;;;;;;;;13.00;99.90;;;;;;5091062;28;19908;-23
2022/11/12 03:03:47;;;;;;;;;;;13.10;99.90;;;;;;5091149;28;19908;-24
2022/11/12 03:06:12;;;;;;;;;;;13.00;99.90;;;;;;5091176;28;19915;-23
2022/11/12 03:08:38;;;;;;;;;;;13.00;99.90;;;;;;5092437;28;19953;-24
2022/11/12 03:11:07;;;;;;;;;;;13.00;99.90;;;;;;5094727;28;19908;-23
2022/11/12 03:13:32;;;;;;;;;;;13.00;99.90;;;;;;5094579;28;19912;-24
2022/11/12 03:16:01;;;;;;;;;;;13.00;99.90;;;;;;5094506;28;19922;-23
2022/11/12 03:18:26;;;;;;;;;;;13.00;99.90;;;;;;5094116;28;19912;-24
2022/11/12 03:20:52;;;;;;;;;;;13.00;99.90;;;;;;5094161;28;20318;-24
2022/11/12 03:23:17;;;;;;;;;;;13.00;99.90;;;;;;5093383;28;20273;-24
2022/11/12 03:25:43;;;;;;;;;;;13.00;99.90;;;;;;5094557;28;19909;-23
2022/11/12 03:28:10;;;;;;;;;;;13.00;99.90;;;;;;5093842;28;19908;-24
2022/11/12 03:30:36;;;;;;;;;;;13.00;99.90;;;;;;5094301;28;19938;-24
2022/11/12 03:33:02;;;;;;;;;;;13.00;99.90;;;;;;5094226;28;19976;-24
2022/11/12 03:35:28;;;;;;;;;;;12.90;99.90;;;;;;5094247;28;20396;-24
2022/11/12 03:37:53;;;;;;;;;;;13.00;99.90;;;;;;5093977;28;19908;-23
2022/11/12 03:40:19;;;;;;;;;;;12.90;99.90;;;;;;5094174;28;20388;-24
2022/11/12 03:42:46;;;;;;;;;;;12.90;99.90;;;;;;5094494;28;19912;-24
2022/11/12 03:45:12;;;;;;;;;;;13.00;99.90;;;;;;5094341;28;20043;-23
2022/11/12 03:47:41;;;;;;;;;;;12.90;99.90;;;;;;5094121;28;19944;-24
2022/11/12 03:50:09;;;;;;;;;;;12.90;99.90;;;;;;5093664;28;19931;-23
2022/11/12 03:52:34;;;;;;;;;;;13.00;99.90;;;;;;5093973;28;20162;-23
2022/11/12 03:55:00;;;;;;;;;;;12.90;99.90;;;;;;5094104;28;19908;-23
2022/11/12 03:57:25;;;;;;;;;;;12.90;99.90;;;;;;5093670;28;19908;-24
2022/11/12 03:59:51;;;;;;;;;;;12.90;99.90;;;;;;5093381;28;20364;-23
2022/11/12 04:02:16;;;;;;;;;;;12.90;99.90;;;;;;5093746;28;19908;-24
2022/11/12 04:10:10;;;;;;;;;;;12.90;99.90;;;;;;5093856;28;20380;-24
2022/11/12 04:15:20;;;;;;;;;;;12.90;99.90;;;;;;5093513;28;19915;-23
2022/11/12 04:23:18;;;;;;;;;;;12.90;99.90;;;;;;5064146;28;20281;-23
2022/11/12 04:28:29;;;;;;;;;;;12.90;99.90;;;;;;5092588;28;19915;-24
2022/11/12 04:30:54;;;;;;;;;;;12.90;99.90;;;;;;5093133;28;19913;-23
2022/11/12 04:33:19;;;;;;;;;;;12.90;99.90;;;;;;5093080;28;19916;-23
2022/11/12 04:35:45;;;;;;;;;;;12.90;99.90;;;;;;5093111;28;19941;-24
2022/11/12 04:38:10;;;;;;;;;;;12.90;99.90;;;;;;5092397;28;20006;-23
2022/11/12 04:46:04;;;;;;;;;;;12.90;99.90;;;;;;5093293;28;19916;-23
2022/11/12 04:48:30;;;;;;;;;;;12.90;99.90;;;;;;5092247;28;19912;-24
2022/11/12 04:50:58;;;;;;;;;;;12.80;99.90;;;;;;5092975;28;19919;-24
2022/11/12 04:53:24;;;;;;;;;;;12.90;99.90;;;;;;5093089;28;19912;-24
2022/11/12 04:55:50;;;;;;;;;;;12.80;99.90;;;;;;5091398;28;19915;-24
2022/11/12 04:58:16;;;;;;;;;;;12.90;99.90;;;;;;5092266;28;20331;-23
2022/11/12 05:00:41;;;;;;;;;;;12.90;99.90;;;;;;5092667;28;20397;-23
2022/11/12 05:03:07;;;;;;;;;;;12.90;99.90;;;;;;5092473;28;19912;-24
2022/11/12 05:05:32;;;;;;;;;;;12.80;99.90;;;;;;5092624;28;20370;-23
2022/11/12 05:07:58;;;;;;;;;;;12.80;99.90;;;;;;5092020;28;19908;-23
2022/11/12 05:10:24;;;;;;;;;;;12.80;99.90;;;;;;5090712;28;19915;-23
2022/11/12 05:12:49;;;;;;;;;;;12.90;99.90;;;;;;5092228;28;20010;-23
2022/11/12 05:15:15;;;;;;;;;;;12.80;99.90;;;;;;5092294;28;19912;-24
2022/11/12 05:17:42;;;;;;;;;;;12.90;99.90;;;;;;5092221;28;20327;-24
2022/11/12 05:20:08;;;;;;;;;;;12.90;99.90;;;;;;5092032;28;19912;-24
2022/11/12 05:22:33;;;;;;;;;;;12.80;99.90;;;;;;5091993;28;19965;-24
2022/11/12 05:24:59;;;;;;;;;;;12.80;99.90;;;;;;5092252;28;20278;-23
2022/11/12 05:27:24;;;;;;;;;;;12.80;99.90;;;;;;5090581;28;19919;-24
2022/11/12 05:29:50;;;;;;;;;;;12.80;99.90;;;;;;5091798;28;19908;-24
2022/11/12 05:32:17;;;;;;;;;;;12.80;99.90;;;;;;5092287;28;19912;-24
2022/11/12 05:34:43;;;;;;;;;;;12.80;99.90;;;;;;5092025;28;19912;-23
2022/11/12 05:37:09;;;;;;;;;;;12.80;99.90;;;;;;5091944;28;19999;-24
2022/11/12 05:39:35;;;;;;;;;;;12.80;99.90;;;;;;5091471;28;19908;-23
2022/11/12 05:42:00;;;;;;;;;;;12.80;99.90;;;;;;5091621;28;19922;-23
2022/11/12 05:44:26;;;;;;;;;;;12.80;99.90;;;;;;5091918;28;19908;-23
2022/11/12 05:46:51;;;;;;;;;;;12.80;99.90;;;;;;5090647;28;19912;-23
2022/11/12 05:49:17;;;;;;;;;;;12.80;99.90;;;;;;5091344;28;19908;-23
2022/11/12 05:51:43;;;;;;;;;;;12.80;99.90;;;;;;5091754;28;20266;-24
2022/11/12 05:54:09;;;;;;;;;;;12.80;99.90;;;;;;5090367;28;19918;-24
2022/11/12 05:56:35;;;;;;;;;;;12.70;99.90;;;;;;5091680;28;19995;-24
2022/11/12 05:59:01;;;;;;;;;;;12.80;99.90;;;;;;5091255;28;19912;-23
2022/11/12 06:01:27;;;;;;;;;;;12.80;99.90;;;;;;5091682;28;19936;-24
2022/11/12 06:03:52;;;;;;;;;;;12.80;99.90;;;;;;5091986;28;19908;-24
2022/11/12 06:06:18;;;;;;;;;;;12.80;99.90;;;;;;5091908;28;19954;-24
2022/11/12 06:08:43;;;;;;;;;;;12.70;99.90;;;;;;5091689;28;20024;-23
2022/11/12 06:11:09;;;;;;;;;;;12.70;99.90;;;;;;5091689;28;19908;-24
2022/11/12 06:13:34;;;;;;;;;;;12.70;99.90;;;;;;5091566;28;19948;-23
2022/11/12 06:16:00;;;;;;;;;;;12.70;99.90;;;;;;5091464;28;19916;-23
2022/11/12 06:18:26;;;;;;;;;;;12.80;99.90;;;;;;5091041;28;19918;-24
2022/11/12 06:23:58;;;;;;;;;;;12.70;99.90;;;;;;5056923;28;19908;-23
2022/11/12 06:26:24;;;;;;;;;;;12.70;99.90;;;;;;5091240;28;19908;-24
2022/11/12 06:28:50;;;;;;;;;;;12.70;99.90;;;;;;5091167;28;20002;-24
2022/11/12 06:31:16;;;;;;;;;;;12.70;99.90;;;;;;5091388;28;20172;-24
2022/11/12 06:33:43;;;;;;;;;;;12.70;99.90;;;;;;5091406;28;20011;-24
2022/11/12 06:36:10;;;;;;;;;;;12.70;99.90;;;;;;5091480;28;19909;-24
2022/11/12 06:38:36;;;;;;;;;;;12.70;99.90;;;;;;5090923;28;20408;-24
2022/11/12 06:41:02;;;;;;;;;;;12.70;99.90;;;;;;5091254;28;19927;-23
2022/11/12 06:43:29;;;;;;;;;;;12.70;99.90;;;;;;5093468;28;19962;-24
2022/11/12 06:46:01;;;;;;;;;;;12.70;99.90;;;;;;5095348;28;20285;-24
2022/11/12 06:48:27;;;;;;;;;;;12.70;99.90;;;;;;5094676;28;20293;-23
2022/11/12 06:50:53;;;;;;;;;;;12.70;99.90;;;;;;5094986;28;19912;-24
2022/11/12 06:53:18;;;;;;;;;;;12.70;99.90;;;;;;5094860;28;20010;-24
2022/11/12 06:55:44;;;;;;;;;;;12.70;99.90;;;;;;5094825;28;19920;-24
2022/11/12 06:58:09;;;;;;;;;;;12.60;99.90;;;;;;5094444;28;19915;-23
2022/11/12 07:00:35;;;;;;;;;;;12.70;99.90;;;;;;5094881;28;19995;-23
2022/11/12 07:03:04;;;;;;;;;;;12.70;99.90;;;;;;5094798;28;19907;-24
2022/11/12 07:05:30;;;;;;;;;;;12.70;99.90;;;;;;5095019;28;19908;-24
2022/11/12 07:07:55;;;;;;;;;;;12.60;99.90;;;;;;5094632;28;20032;-24
2022/11/12 07:10:21;;;;;;;;;;;12.60;99.90;;;;;;5094598;28;19912;-23
2022/11/12 07:12:46;;;;;;;;;;;12.70;99.90;;;;;;5094665;28;19912;-23
2022/11/12 07:15:12;;;;;;;;;;;12.70;99.90;;;;;;5094560;28;19908;-24
2022/11/12 07:17:37;;;;;;;;;;;12.70;99.90;;;;;;5094890;28;20369;-24
2022/11/12 07:20:03;;;;;;;;;;;12.70;99.90;;;;;;5094092;28;19908;-23
2022/11/12 07:22:29;;;;;;;;;;;12.70;99.90;;;;;;5094371;28;19912;-24
2022/11/12 07:24:54;;;;;;;;;;;12.70;99.90;;;;;;5094338;28;19918;-24
2022/11/12 07:27:20;;;;;;;;;;;12.80;99.90;;;;;;5094733;28;19923;-23
2022/11/12 07:29:45;;;;;;;;;;;12.70;99.90;;;;;;5093972;28;19919;-23
2022/11/12 07:32:11;;;;;;;;;;;12.80;99.90;;;;;;5094410;28;19943;-24
2022/11/12 07:34:36;;;;;;;;;;;12.80;99.90;;;;;;5094147;28;19912;-23
2022/11/12 07:37:02;;;;;;;;;;;12.80;99.90;;;;;;5094289;28;20255;-24
2022/11/12 07:39:27;;;;;;;;;;;12.80;99.90;;;;;;5093696;28;19913;-24
2022/11/12 07:41:53;;;;;;;;;;;12.90;99.90;;;;;;5092953;28;20002;-23
2022/11/12 07:44:18;;;;;;;;;;;12.90;99.90;;;;;;5094304;28;19912;-24
2022/11/12 07:46:44;;;;;;;;;;;12.90;99.90;;;;;;5094353;28;19954;-23
2022/11/12 07:49:09;;;;;;;;;;;12.90;99.90;;;;;;5094015;28;19927;-23
2022/11/12 07:51:35;;;;;;;;;;;13.00;99.90;;;;;;5094203;28;19964;-24
2022/11/12 07:54:00;;;;;;;;;;;13.00;99.90;;;;;;5092933;28;19916;-24
2022/11/12 07:56:26;;;;;;;;;;;13.00;99.90;;;;;;5093721;28;19912;-24
2022/11/12 07:58:52;;;;;;;;;;;13.00;99.90;;;;;;5093716;28;19908;-24
2022/11/12 08:01:24;;;;;;;;;;;13.00;99.90;;;;;;5093801;28;19912;-24
2022/11/12 08:03:49;;;;;;;;;;;13.10;99.90;;;;;;5093907;28;19918;-24
2022/11/12 08:06:15;;;;;;;;;;;13.10;99.90;;;;;;5093759;28;20006;-24
2022/11/12 08:08:40;;;;;;;;;;;13.10;99.90;;;;;;5093056;28;20400;-24
2022/11/12 08:11:06;;;;;;;;;;;13.10;99.90;;;;;;5094111;28;19918;-24
2022/11/12 08:13:31;;;;;;;;;;;13.20;99.90;;;;;;5093540;28;19911;-24
2022/11/12 08:15:57;;;;;;;;;;;13.20;99.90;;;;;;5093603;28;20281;-24
2022/11/12 08:18:23;;;;;;;;;;;13.20;99.90;;;;;;5093380;28;20316;-24
2022/11/12 08:20:49;;;;;;;;;;;13.20;99.90;;;;;;5093215;28;19912;-24
2022/11/12 08:23:14;;;;;;;;;;;13.30;99.90;;;;;;5093345;28;19965;-24
2022/11/12 08:25:40;;;;;;;;;;;13.30;99.90;;;;;;5093619;28;20293;-24
2022/11/12 08:28:05;;;;;;;;;;;13.10;99.50;;;;;;5093129;28;20250;-24
2022/11/12 08:30:31;;;;;;;;;;;12.80;99.90;;;;;;5093302;28;19935;-24
2022/11/12 08:32:57;;;;;;;;;;;12.70;99.90;;;;;;5093301;28;19912;-24
2022/11/12 08:35:24;;;;;;;;;;;12.80;99.90;;;;;;5093330;28;20437;-24
2022/11/12 08:37:49;;;;;;;;;;;12.90;99.90;;;;;;5092887;28;19908;-24
2022/11/12 08:40:15;;;;;;;;;;;13.00;99.90;;;;;;5092704;28;19930;-24
2022/11/12 08:42:40;;;;;;;;;;;13.10;99.90;;;;;;5093047;28;19916;-23
2022/11/12 08:45:06;;;;;;;;;;;13.10;99.90;;;;;;5092963;28;19915;-23
2022/11/12 08:47:32;;;;;;;;;;;13.20;99.90;;;;;;5092763;28;19912;-23
2022/11/12 08:49:57;;;;;;;;;;;13.30;99.90;;;;;;5092540;28;19908;-24
2022/11/12 08:52:23;;;;;;;;;;;13.40;99.90;;;;;;5092493;28;20344;-24
2022/11/12 08:54:48;;;;;;;;;;;13.40;99.90;;;;;;5091655;28;19912;-23
2022/11/12 08:57:14;;;;;;;;;;;13.50;99.90;;;;;;5092675;28;19969;-24
2022/11/12 08:59:39;;;;;;;;;;;13.50;99.90;;;;;;5092493;28;19917;-24
2022/11/12 09:02:05;;;;;;;;;;;13.50;99.90;;;;;;5092693;28;19955;-24
2022/11/12 09:04:31;;;;;;;;;;;13.50;99.90;;;;;;5092510;28;19914;-23
2022/11/12 09:06:56;;;;;;;;;;;13.50;99.90;;;;;;5092212;28;19934;-24
2022/11/12 09:09:22;;;;;;;;;;;13.50;99.90;;;;;;5090892;28;19908;-24
2022/11/12 09:11:47;;;;;;;;;;;13.30;99.90;;;;;;5092493;28;19915;-24
2022/11/12 09:14:13;;;;;;;;;;;13.20;99.90;;;;;;5092169;28;20272;-24
2022/11/12 09:16:38;;;;;;;;;;;13.20;99.90;;;;;;5092274;28;19908;-23
2022/11/12 09:19:04;;;;;;;;;;;13.20;99.90;;;;;;5092303;28;19915;-24
2022/11/12 09:21:29;;;;;;;;;;;13.30;99.90;;;;;;5092258;28;19911;-24
2022/11/12 09:23:55;;;;;;;;;;;13.40;99.90;;;;;;5092393;28;19916;-24
2022/11/12 09:26:21;;;;;;;;;;;13.50;99.90;;;;;;5092165;28;19963;-24
2022/11/12 09:28:46;;;;;;;;;;;13.60;99.90;;;;;;5091634;28;19923;-24
2022/11/12 09:31:12;;;;;;;;;;;13.60;99.90;;;;;;5092095;28;19965;-24
2022/11/12 09:33:37;;;;;;;;;;;13.60;99.90;;;;;;5092046;28;20339;-24
2022/11/12 09:36:03;;;;;;;;;;;13.70;99.90;;;;;;5090543;28;19914;-24
2022/11/12 09:38:29;;;;;;;;;;;13.70;99.90;;;;;;5091540;28;19914;-23
2022/11/12 09:41:01;;;;;;;;;;;13.50;99.90;;;;;;5092003;28;20216;-23
2022/11/12 09:43:29;;;;;;;;;;;13.50;99.90;;;;;;5092035;28;20309;-24
2022/11/12 09:45:56;;;;;;;;;;;13.50;99.90;;;;;;5092037;28;19987;-24
2022/11/12 09:48:25;;;;;;;;;;;13.50;99.90;;;;;;5091729;28;19965;-24
2022/11/12 09:50:54;;;;;;;;;;;13.60;99.90;;;;;;5092043;28;19915;-24
2022/11/12 09:53:34;;;;;;;;;;;13.60;99.90;;;;;;5090601;28;19916;-24
2022/11/12 09:56:00;;;;;;;;;;;13.50;99.90;;;;;;5091963;28;19914;-24
2022/11/12 09:58:26;;;;;;;;;;;13.40;99.90;;;;;;5089958;28;19920;-24
2022/11/12 10:00:56;;;;;;;;;;;13.40;99.90;;;;;;5090463;28;19908;-24
2022/11/12 10:03:27;;;;;;;;;;;13.50;99.90;;;;;;5091824;28;19987;-24
2022/11/12 10:06:10;;;;;;;;;;;13.60;99.90;;;;;;5091919;28;19919;-24
2022/11/12 10:08:44;;;;;;;;;;;13.70;99.90;;;;;;5091114;28;19916;-24
2022/11/12 10:11:09;;;;;;;;;;;13.80;99.90;;;;;;5092041;28;19912;-24
2022/11/12 10:13:53;;;;;;;;;;;13.80;99.90;;;;;;5091161;28;19912;-24
2022/11/12 10:16:43;;;;;;;;;;;13.90;99.90;;;;;;5092082;28;20002;-24
2022/11/12 10:19:15;;;;;;;;;;;13.90;99.90;;;;;;5092739;28;19954;-24
2022/11/12 10:21:43;;;;;;;;;;;13.90;99.90;;;;;;5096069;28;19912;-24
2022/11/12 10:24:09;;;;;;;;;;;13.90;99.90;;;;;;5095561;28;19912;-24
2022/11/12 10:26:36;;;;;;;;;;;13.90;99.90;;;;;;5095583;28;20339;-24
2022/11/12 10:29:05;;;;;;;;;;;13.90;99.90;;;;;;5095002;28;19909;-24
2022/11/12 10:31:30;;;;;;;;;;;13.90;99.90;;;;;;5095558;28;19919;-24
2022/11/12 10:34:16;;;;;;;;;;;13.90;99.90;;;;;;5095524;28;20371;-24
2022/11/12 10:36:44;;;;;;;;;;;13.90;99.90;;;;;;5095389;28;19987;-24
2022/11/12 10:39:09;;;;;;;;;;;14.00;99.90;;;;;;5094868;28;19915;-24
2022/11/12 10:41:35;;;;;;;;;;;13.90;99.90;;;;;;5095194;28;20023;-24
2022/11/12 10:44:01;;;;;;;;;;;13.90;99.90;;;;;;5095947;28;19912;-24
2022/11/12 10:46:27;;;;;;;;;;;13.90;99.90;;;;;;5095442;28;19908;-24
2022/11/12 10:48:55;;;;;;;;;;;13.90;99.90;;;;;;5095123;28;19915;-24
2022/11/12 10:51:25;;;;;;;;;;;13.90;99.90;;;;;;5095560;28;20437;-24
2022/11/12 10:53:51;;;;;;;;;;;13.90;99.90;;;;;;5095137;28;19923;-24
2022/11/12 10:56:24;;;;;;;;;;;14.00;99.90;;;;;;5093874;28;19908;-24
2022/11/12 10:59:10;;;;;;;;;;;14.00;99.90;;;;;;5094524;28;19915;-24
2022/11/12 11:01:35;;;;;;;;;;;14.00;99.90;;;;;;5094735;28;19916;-24
2022/11/12 11:04:01;;;;;;;;;;;14.00;99.90;;;;;;5094723;28;19919;-24
2022/11/12 11:06:26;;;;;;;;;;;14.00;99.90;;;;;;5094927;28;20365;-24
2022/11/12 11:08:53;;;;;;;;;;;13.90;99.90;;;;;;5094281;28;19919;-24
2022/11/12 11:11:23;;;;;;;;;;;14.00;99.90;;;;;;5094596;28;19916;-24
2022/11/12 11:13:53;;;;;;;;;;;14.00;99.90;;;;;;5094503;28;19923;-24
2022/11/12 11:16:20;;;;;;;;;;;14.00;99.90;;;;;;5093204;28;19915;-24
2022/11/12 11:18:48;;;;;;;;;;;14.00;99.90;;;;;;5094079;28;19923;-24
2022/11/12 11:21:22;;;;;;;;;;;14.00;99.90;;;;;;5094397;28;19908;-23
2022/11/12 11:23:48;;;;;;;;;;;14.00;99.90;;;;;;5094412;28;20300;-24
2022/11/12 11:26:16;;;;;;;;;;;14.00;99.90;;;;;;5094363;28;20350;-24
2022/11/12 11:28:48;;;;;;;;;;;14.00;99.90;;;;;;5093668;28;19908;-24
2022/11/12 11:31:30;;;;;;;;;;;14.00;99.90;;;;;;5094169;28;19993;-24
2022/11/12 11:33:56;;;;;;;;;;;14.00;99.90;;;;;;5094139;28;20381;-24
2022/11/12 11:36:40;;;;;;;;;;;14.00;99.90;;;;;;5094201;28;19916;-24
2022/11/12 11:39:15;;;;;;;;;;;14.00;99.90;;;;;;5093526;28;19915;-24
2022/11/12 11:41:49;;;;;;;;;;;14.00;99.90;;;;;;5094085;28;20392;-24
2022/11/12 11:44:27;;;;;;;;;;;14.00;99.90;;;;;;5094213;28;19909;-24
2022/11/12 11:47:11;;;;;;;;;;;14.00;99.90;;;;;;5094170;28;19908;-24
2022/11/12 11:49:42;;;;;;;;;;;14.00;99.90;;;;;;5093905;28;19993;-24
2022/11/12 11:52:08;;;;;;;;;;;14.00;99.90;;;;;;5094101;28;19915;-24
2022/11/12 11:54:52;;;;;;;;;;;14.00;99.90;;;;;;5093907;28;19995;-24
2022/11/12 11:57:21;;;;;;;;;;;14.00;99.90;;;;;;5094003;28;20359;-24
2022/11/12 11:59:46;;;;;;;;;;;14.00;99.90;;;;;;5093402;28;20323;-24
2022/11/12 12:02:29;;;;;;;;;;;14.00;99.90;;;;;;5093878;28;20373;-24
2022/11/12 12:05:10;;;;;;;;;;;14.00;99.90;;;;;;5093951;28;19995;-24
2022/11/12 12:07:41;;;;;;;;;;;14.00;99.90;;;;;;5093515;28;20388;-24
2022/11/12 12:10:12;;;;;;;;;;;14.00;99.90;;;;;;5093158;28;20316;-24
2022/11/12 12:12:38;;;;;;;;;;;14.00;99.90;;;;;;5093944;28;20266;-24
2022/11/12 12:15:06;;;;;;;;;;;14.00;99.90;;;;;;5093539;28;19912;-24
2022/11/12 12:17:41;;;;;;;;;;;14.00;99.90;;;;;;5093574;28;20336;-24
2022/11/12 12:20:16;;;;;;;;;;;14.00;99.90;;;;;;5093069;28;19916;-24
2022/11/12 12:22:59;;;;;;;;;;;14.10;99.90;;;;;;5093404;28;19912;-24
2022/11/12 12:25:29;;;;;;;;;;;14.00;99.90;;;;;;5091976;28;19907;-24
2022/11/12 12:28:14;;;;;;;;;;;14.10;99.90;;;;;;5092910;28;20324;-24
2022/11/12 12:30:42;;;;;;;;;;;14.00;99.90;;;;;;5061478;28;20411;-24
2022/11/12 12:33:27;;;;;;;;;;;14.00;99.90;;;;;;5093121;28;19916;-24
2022/11/12 12:35:58;;;;;;;;;;;14.00;99.90;;;;;;5093122;28;19927;-24
2022/11/12 12:38:42;;;;;;;;;;;14.00;99.90;;;;;;5092714;28;19908;-24
2022/11/12 12:41:19;;;;;;;;;;;14.00;99.90;;;;;;5090882;28;19951;-24
2022/11/12 12:43:47;;;;;;;;;;;14.00;99.90;;;;;;5093040;28;20328;-24
2022/11/12 12:46:15;;;;;;;;;;;14.00;99.90;;;;;;5092737;28;19915;-24
2022/11/12 12:48:42;;;;;;;;;;;14.00;99.90;;;;;;5092469;28;19908;-24
2022/11/12 12:51:08;;;;;;;;;;;14.00;99.90;;;;;;5092896;28;19913;-24
2022/11/12 12:53:34;;;;;;;;;;;14.00;99.90;;;;;;5092727;28;19912;-24
2022/11/12 12:56:05;;;;;;;;;;;13.90;99.90;;;;;;5092746;28;19908;-24
2022/11/12 12:58:31;;;;;;;;;;;13.90;99.90;;;;;;5092304;28;20019;-24
2022/11/12 13:01:15;;;;;;;;;;;13.90;99.90;;;;;;5092596;28;19912;-24
2022/11/12 13:03:44;;;;;;;;;;;13.90;99.90;;;;;;5092779;28;19908;-24
2022/11/12 13:06:21;;;;;;;;;;;13.90;99.90;;;;;;5092928;28;19916;-24
2022/11/12 13:09:00;;;;;;;;;;;14.00;99.90;;;;;;5092302;28;19934;-24
2022/11/12 13:14:43;;;;;;;;;;;14.00;99.90;;;;;;5092519;28;20448;-24
2022/11/12 13:17:10;;;;;;;;;;;14.00;99.90;;;;;;5092641;28;19918;-24
2022/11/12 13:19:37;;;;;;;;;;;14.00;99.90;;;;;;5090384;28;19960;-24
2022/11/12 13:22:18;;;;;;;;;;;14.00;99.90;;;;;;5092071;28;20021;-24
2022/11/12 13:25:02;;;;;;;;;;;14.00;99.90;;;;;;5092222;28;19908;-24
2022/11/12 13:27:45;;;;;;;;;;;14.00;99.90;;;;;;5091968;28;19920;-24
2022/11/12 13:30:19;;;;;;;;;;;14.00;99.90;;;;;;5091628;28;19931;-24
2022/11/12 13:32:44;;;;;;;;;;;14.00;99.90;;;;;;5092094;28;19912;-24
2022/11/12 13:35:10;;;;;;;;;;;13.90;99.90;;;;;;5091913;28;20293;-24
2022/11/12 13:37:43;;;;;;;;;;;13.90;99.90;;;;;;5091881;28;19912;-24
2022/11/12 13:40:13;;;;;;;;;;;13.90;99.90;;;;;;5091527;28;19908;-24
2022/11/12 13:42:47;;;;;;;;;;;13.90;99.90;;;;;;5092139;28;19998;-24
2022/11/12 13:45:14;;;;;;;;;;;13.90;99.90;;;;;;5092331;28;20283;-24
2022/11/12 13:47:39;;;;;;;;;;;13.90;99.90;;;;;;5091879;28;19915;-24
2022/11/12 13:50:07;;;;;;;;;;;13.90;99.90;;;;;;5091346;28;19908;-24
2022/11/12 13:52:33;;;;;;;;;;;13.80;99.90;;;;;;5090998;28;19909;-24
2022/11/12 13:55:06;;;;;;;;;;;13.80;99.90;;;;;;5091715;28;19919;-24
2022/11/12 13:57:32;;;;;;;;;;;13.80;99.90;;;;;;5091542;28;19940;-24
2022/11/12 14:00:15;;;;;;;;;;;13.80;99.90;;;;;;5090313;28;20547;-24
2022/11/12 14:02:43;;;;;;;;;;;13.80;99.90;;;;;;5091587;28;19999;-24
2022/11/12 14:05:13;;;;;;;;;;;13.70;99.90;;;;;;5090381;28;20028;-24
2022/11/12 14:07:41;;;;;;;;;;;13.80;99.90;;;;;;5091619;28;19908;-24
2022/11/12 14:10:16;;;;;;;;;;;13.70;99.90;;;;;;5089895;28;20370;-24
2022/11/12 14:13:00;;;;;;;;;;;13.70;99.90;;;;;;5092034;28;19912;-24
2022/11/12 14:15:25;;;;;;;;;;;13.70;99.90;;;;;;5091629;28;20368;-24
2022/11/12 14:18:09;;;;;;;;;;;13.70;99.90;;;;;;5091318;28;19947;-24
2022/11/12 14:20:37;;;;;;;;;;;13.70;99.90;;;;;;5091830;28;19916;-24
2022/11/12 14:23:07;;;;;;;;;;;13.70;99.90;;;;;;5091560;28;20457;-24
2022/11/12 14:25:33;;;;;;;;;;;13.70;99.90;;;;;;5091559;28;20012;-24
2022/11/12 14:27:58;;;;;;;;;;;13.70;99.90;;;;;;5090987;28;20002;-25
2022/11/12 14:30:31;;;;;;;;;;;13.70;99.90;;;;;;5091281;28;19914;-24
2022/11/12 14:32:58;;;;;;;;;;;13.70;99.90;;;;;;5091301;28;19912;-24
2022/11/12 14:35:23;;;;;;;;;;;13.70;99.90;;;;;;5091470;28;19912;-24
2022/11/12 14:38:01;;;;;;;;;;;13.70;99.90;;;;;;5091178;28;19908;-24
2022/11/12 14:40:27;;;;;;;;;;;13.70;99.90;;;;;;5091035;28;19962;-24
2022/11/12 14:42:53;;;;;;;;;;;13.70;99.90;;;;;;5091455;28;20390;-24
2022/11/12 14:45:20;;;;;;;;;;;13.70;99.90;;;;;;5091357;28;19912;-24
2022/11/12 14:47:47;;;;;;;;;;;13.60;99.90;;;;;;5091077;28;19964;-24
2022/11/12 14:50:15;;;;;;;;;;;13.60;99.90;;;;;;5090856;28;19965;-24